Time;durP1;ratioP1;P1;durP2;ratioP2;P2;SDS_P1;SDS_P2;PMS_P1;PMS_P2;Temp;Humidity;BMP_temperature;BMP_pressure;BME280_temperature;BME280_humidity;BME280_pressure;Samples;Min_cycle;Max_cycle;Signal;HPM_P1;HPM_P2
2021/12/24 00:00:56;;;;;;;;;16.00;15.00;;;;;7.21;45.40;97499.13;6212626;28;96727;-67
2021/12/24 00:03:59;;;;;;;;;15.80;14.20;;;;;7.24;45.84;97506.69;6212129;28;99482;-67
2021/12/24 00:07:05;;;;;;;;;18.00;17.00;;;;;7.25;46.04;97498.41;6211063;28;96644;-67
2021/12/24 00:10:10;;;;;;;;;17.00;16.60;;;;;7.20;46.51;97490.25;6215228;28;96431;-68
2021/12/24 00:13:16;;;;;;;;;16.40;15.00;;;;;7.19;46.63;97485.13;6212059;28;97425;-67
2021/12/24 00:16:23;;;;;;;;;15.00;15.00;;;;;7.12;47.43;97479.91;6213990;28;96552;-68
2021/12/24 00:19:39;;;;;;;;;19.60;17.60;;;;;7.16;46.97;97477.56;6216611;28;96423;-67
2021/12/24 00:36:06;;;;;;;;;16.00;15.00;;;;;6.85;49.07;97454.59;6231338;28;97924;-65
2021/12/24 00:39:13;;;;;;;;;18.00;15.00;;;;;6.73;49.91;97437.75;6210845;28;96495;-67
2021/12/24 00:42:17;;;;;;;;;14.40;13.40;;;;;6.62;49.58;97427.81;6213845;28;99145;-67
2021/12/24 00:45:24;;;;;;;;;14.00;13.00;;;;;6.65;50.04;97443.41;6212711;28;98180;-66
2021/12/24 00:48:28;;;;;;;;;16.80;14.80;;;;;6.53;50.20;97435.38;6194192;28;96964;-67
2021/12/24 00:51:43;;;;;;;;;18.40;16.00;;;;;6.48;50.35;97421.88;6211934;28;97443;-66
2021/12/24 00:55:06;;;;;;;;;14.00;13.00;;;;;6.46;50.09;97416.75;6211969;28;98010;-66
2021/12/24 00:58:09;;;;;;;;;17.00;14.00;;;;;6.43;50.10;97403.84;6211052;28;96430;-65
2021/12/24 01:01:14;;;;;;;;;17.00;14.40;;;;;6.12;51.20;97398.78;6211796;28;97562;-65
2021/12/24 01:04:18;;;;;;;;;15.00;14.25;;;;;6.31;50.74;97394.16;6212316;28;96798;-67
2021/12/24 01:07:21;;;;;;;;;14.00;14.00;;;;;6.33;50.45;97392.06;6196778;28;97870;-66
2021/12/24 01:10:30;;;;;;;;;17.00;15.00;;;;;6.37;50.31;97380.66;6228499;28;96444;-67
2021/12/24 01:13:34;;;;;;;;;16.00;15.00;;;;;6.43;50.14;97373.56;6229875;28;98455;-67
2021/12/24 01:16:43;;;;;;;;;15.80;14.20;;;;;6.40;50.52;97358.00;6212277;28;97306;-67
2021/12/24 01:19:49;;;;;;;;;14.00;13.00;;;;;6.34;50.59;97364.25;6213416;28;96336;-67
2021/12/24 01:26:37;;;;;;;;;15.40;12.00;;;;;6.26;51.36;97351.22;6195209;28;97770;-65
2021/12/24 01:29:56;;;;;;;;;15.50;14.00;;;;;6.44;51.06;97348.44;6216644;28;97700;-66
2021/12/24 01:39:55;;;;;;;;;13.80;11.80;;;;;6.66;50.83;97319.19;6198010;28;96618;-65
2021/12/24 01:42:59;;;;;;;;;13.40;12.00;;;;;6.60;51.41;97315.59;6199770;28;98418;-67
2021/12/24 01:46:04;;;;;;;;;12.50;11.50;;;;;6.44;51.56;97284.22;6217595;28;96900;-67
2021/12/24 01:49:07;;;;;;;;;11.20;10.80;;;;;6.64;52.28;97302.56;6198152;28;96962;-67
2021/12/24 01:52:12;;;;;;;;;13.40;12.00;;;;;6.69;52.09;97303.50;6198574;28;98351;-66
2021/12/24 01:55:17;;;;;;;;;11.75;10.75;;;;;6.56;52.37;97293.03;6215486;28;96366;-67
2021/12/24 01:58:23;;;;;;;;;12.20;11.00;;;;;6.48;53.30;97293.38;6214969;28;97502;-66
2021/12/24 02:01:27;;;;;;;;;15.00;12.00;;;;;6.48;53.25;97280.81;6198042;28;96834;-66
2021/12/24 02:04:31;;;;;;;;;12.00;12.00;;;;;6.55;52.95;97280.69;6216460;28;96527;-66
2021/12/24 02:07:35;;;;;;;;;13.00;13.00;;;;;6.66;52.72;97281.72;6214708;28;97118;-67
2021/12/24 02:10:39;;;;;;;;;14.00;12.00;;;;;6.63;53.09;97271.50;6214782;28;97440;-67
2021/12/24 02:13:45;;;;;;;;;13.00;12.00;;;;;6.58;53.34;97269.53;6231334;28;97324;-67
2021/12/24 02:17:10;;;;;;;;;14.60;14.00;;;;;6.49;53.72;97260.22;6216913;28;96470;-67
2021/12/24 02:30:26;;;;;;;;;14.00;13.75;;;;;6.23;55.13;97248.16;6218075;28;96552;-68
2021/12/24 02:33:30;;;;;;;;;11.00;11.00;;;;;6.12;55.75;97229.41;6217229;28;97405;-67
2021/12/24 02:36:34;;;;;;;;;12.00;11.60;;;;;6.15;55.39;97239.66;6233891;27;99585;-68
2021/12/24 02:39:38;;;;;;;;;10.50;10.00;;;;;6.19;55.40;97241.63;6216762;28;96412;-67
2021/12/24 02:42:48;;;;;;;;;10.00;9.50;;;;;6.17;55.32;97232.19;6215604;28;97189;-67
2021/12/24 02:45:56;;;;;;;;;17.00;14.00;;;;;6.23;54.99;97228.59;6215973;28;97448;-65
2021/12/24 02:49:10;;;;;;;;;14.00;13.00;;;;;6.30;54.87;97222.09;6196952;28;98395;-68
2021/12/24 02:55:37;;;;;;;;;14.00;13.00;;;;;6.35;54.67;97213.34;6183973;28;96790;-66
2021/12/24 02:58:45;;;;;;;;;13.60;12.00;;;;;6.35;54.63;97208.00;6229524;28;96568;-67
2021/12/24 03:01:49;;;;;;;;;15.00;13.00;;;;;6.41;54.38;97210.53;6196302;28;97993;-67
2021/12/24 03:04:53;;;;;;;;;15.00;14.00;;;;;6.46;54.26;97196.44;6216233;28;97379;-67
2021/12/24 03:07:58;;;;;;;;;14.00;13.00;;;;;6.43;54.32;97194.25;6215380;28;96661;-67
2021/12/24 03:11:01;;;;;;;;;13.00;12.00;;;;;6.45;54.34;97211.69;6215469;28;96894;-67
2021/12/24 03:14:06;;;;;;;;;15.80;14.00;;;;;6.40;54.51;97194.72;6230354;28;98263;-66
2021/12/24 03:17:14;;;;;;;;;14.80;13.20;;;;;6.50;54.20;97197.59;6215268;28;97476;-66
2021/12/24 03:20:20;;;;;;;;;12.80;11.00;;;;;6.49;54.06;97193.31;6214675;28;97429;-67
2021/12/24 03:23:34;;;;;;;;;14.20;13.00;;;;;6.59;53.76;97192.69;6215319;28;97059;-68
2021/12/24 03:26:45;;;;;;;;;14.75;13.25;;;;;6.58;53.62;97189.19;6212441;28;97528;-67
2021/12/24 03:29:49;;;;;;;;;14.00;14.00;;;;;6.60;53.56;97197.00;6200823;28;99981;-67
2021/12/24 03:32:58;;;;;;;;;13.00;12.00;;;;;6.58;53.72;97181.16;6215084;28;96419;-67
2021/12/24 03:36:02;;;;;;;;;14.00;12.00;;;;;6.63;53.53;97191.97;6212366;28;96484;-66
2021/12/24 03:39:08;;;;;;;;;14.40;13.00;;;;;6.64;53.68;97182.91;6212903;28;96600;-67
2021/12/24 03:42:11;;;;;;;;;13.25;13.00;;;;;6.61;53.61;97183.34;6198695;28;97708;-68
2021/12/24 03:45:25;;;;;;;;;15.80;13.80;;;;;6.74;53.09;97174.25;6214701;28;97122;-68
2021/12/24 03:48:43;;;;;;;;;16.20;14.00;;;;;6.74;53.54;97179.59;6212279;28;96807;-67
2021/12/24 03:51:53;;;;;;;;;14.00;14.00;;;;;6.83;53.20;97181.66;6186965;28;98357;-67
2021/12/24 03:54:57;;;;;;;;;13.75;13.75;;;;;6.66;53.04;97151.31;6191269;28;97450;-67
2021/12/24 03:58:09;;;;;;;;;15.00;13.40;;;;;6.81;53.26;97173.03;6188353;28;97476;-68
2021/12/24 04:01:31;;;;;;;;;15.80;12.40;;;;;6.69;53.49;97158.91;6189936;28;96712;-66
2021/12/24 04:05:00;;;;;;;;;14.00;14.00;;;;;6.89;53.10;97163.81;6189804;28;97373;-67
2021/12/24 04:08:31;;;;;;;;;15.00;14.00;;;;;6.91;52.98;97157.16;6193718;28;96464;-67
2021/12/24 04:11:46;;;;;;;;;15.00;14.00;;;;;6.93;52.75;97164.97;6215202;28;97718;-66
2021/12/24 04:14:53;;;;;;;;;15.00;15.00;;;;;6.85;52.95;97163.47;6216157;28;98006;-66
2021/12/24 04:17:56;;;;;;;;;15.00;14.00;;;;;6.94;52.77;97151.31;6251236;27;96478;-66
2021/12/24 04:27:46;;;;;;;;;15.00;14.00;;;;;7.05;52.71;97144.28;6186484;28;97434;-66
2021/12/24 04:30:52;;;;;;;;;16.60;16.00;;;;;7.09;52.55;97134.69;6212528;28;96934;-66
2021/12/24 04:33:59;;;;;;;;;16.60;12.60;;;;;7.13;52.47;97130.50;6190228;28;96454;-66
2021/12/24 05:03:56;;;;;;;;;14.00;12.60;;;;;7.50;52.55;97124.63;6233527;28;97199;-67
2021/12/24 05:07:09;;;;;;;;;13.00;12.00;;;;;7.27;53.18;97126.44;6176318;28;97241;-67
2021/12/24 05:10:12;;;;;;;;;14.00;12.20;;;;;7.39;52.28;97121.78;6196368;28;99042;-67
2021/12/24 05:13:17;;;;;;;;;14.00;13.00;;;;;7.34;53.17;97124.41;6214977;28;96650;-66
2021/12/24 05:17:05;;;;;;;;;14.50;13.00;;;;;7.48;52.67;97122.19;6182667;28;98598;-67
2021/12/24 05:23:56;;;;;;;;;12.20;10.00;;;;;7.52;52.88;97126.03;6250536;27;98022;-66
2021/12/24 05:27:01;;;;;;;;;11.00;11.00;;;;;7.48;53.07;97116.81;6197347;28;98309;-66
2021/12/24 05:30:07;;;;;;;;;12.00;10.40;;;;;7.59;52.91;97121.28;6218949;28;96470;-66
2021/12/24 05:33:14;;;;;;;;;10.20;10.00;;;;;7.70;52.72;97116.91;6217288;28;97457;-66
2021/12/24 05:36:18;;;;;;;;;12.00;10.00;;;;;7.65;52.87;97114.16;6215930;28;96441;-67
2021/12/24 05:39:22;;;;;;;;;10.80;10.20;;;;;7.69;53.08;97107.22;6216645;28;96477;-67
2021/12/24 05:42:31;;;;;;;;;11.00;10.00;;;;;7.77;52.79;97106.81;6215645;28;96360;-66
2021/12/24 05:45:36;;;;;;;;;10.50;10.00;;;;;7.80;52.58;97103.63;6199095;28;98369;-66
2021/12/24 05:49:01;;;;;;;;;12.00;10.00;;;;;7.80;52.82;97104.44;6216296;28;96478;-67
2021/12/24 05:52:05;;;;;;;;;10.20;9.00;;;;;7.90;52.49;97100.28;6218186;28;98419;-67
2021/12/24 05:55:13;;;;;;;;;12.00;10.00;;;;;7.94;52.51;97098.72;6215834;28;96368;-65
2021/12/24 05:58:16;;;;;;;;;11.00;10.00;;;;;8.00;52.28;97100.41;6240089;28;97162;-67
2021/12/24 06:01:21;;;;;;;;;9.80;8.00;;;;;8.04;52.43;97096.97;6218654;28;97108;-68
2021/12/24 06:04:26;;;;;;;;;10.75;9.75;;;;;8.03;52.43;97103.41;6214645;28;97464;-67
2021/12/24 06:07:29;;;;;;;;;10.00;10.00;;;;;8.03;52.50;97106.09;6217911;28;96634;-66
2021/12/24 06:10:33;;;;;;;;;10.25;9.00;;;;;8.01;52.59;97108.22;6217680;28;97418;-68
2021/12/24 06:13:37;;;;;;;;;9.00;9.00;;;;;8.00;52.70;97106.59;6215417;28;96751;-67
2021/12/24 06:16:48;;;;;;;;;10.00;10.00;;;;;7.99;52.79;97101.47;6215547;28;97349;-67
2021/12/24 06:19:53;;;;;;;;;9.00;9.00;;;;;8.00;52.76;97100.41;6216775;28;96963;-67
2021/12/24 06:22:56;;;;;;;;;10.00;10.00;;;;;8.04;52.64;97115.78;6213093;28;97540;-67
2021/12/24 06:26:00;;;;;;;;;8.80;8.80;;;;;8.11;52.64;97107.53;6214641;28;96880;-66
2021/12/24 06:29:04;;;;;;;;;9.33;9.33;;;;;8.25;52.29;97120.34;6198380;28;98456;-67
2021/12/24 06:32:08;;;;;;;;;9.25;9.00;;;;;8.27;52.22;97120.88;6216500;28;96457;-66
2021/12/24 06:35:13;;;;;;;;;10.00;10.00;;;;;8.36;52.00;97112.41;6216297;28;96933;-67
2021/12/24 06:38:17;;;;;;;;;10.00;8.60;;;;;8.39;52.18;97114.63;6216192;28;97511;-67
2021/12/24 06:41:20;;;;;;;;;12.80;11.40;;;;;8.39;52.25;97118.13;6215495;28;97484;-66
2021/12/24 06:44:24;;;;;;;;;11.00;11.00;;;;;8.46;52.13;97123.28;6218665;28;97440;-67
2021/12/24 06:47:27;;;;;;;;;11.00;10.00;;;;;8.53;52.02;97116.66;6217776;28;96588;-67
2021/12/24 06:50:32;;;;;;;;;10.00;9.00;;;;;8.55;52.16;97125.28;6215481;28;96652;-67
2021/12/24 06:53:36;;;;;;;;;11.60;10.60;;;;;8.47;52.43;97111.47;6212300;28;96650;-66
2021/12/24 06:56:40;;;;;;;;;12.00;11.00;;;;;8.63;52.29;97108.72;6218811;28;96521;-67
2021/12/24 06:59:44;;;;;;;;;10.00;8.00;;;;;8.68;52.12;97107.97;6214841;28;96496;-68
2021/12/24 07:02:50;;;;;;;;;10.00;9.00;;;;;8.70;52.34;97117.38;6213104;28;96505;-66
2021/12/24 07:05:55;;;;;;;;;9.60;9.00;;;;;8.72;52.37;97117.13;6226762;28;97438;-67
2021/12/24 07:08:58;;;;;;;;;10.00;9.00;;;;;8.74;52.27;97114.22;6212029;28;96454;-66
2021/12/24 07:12:01;;;;;;;;;10.60;10.00;;;;;8.79;52.38;97125.81;6213687;28;96375;-67
2021/12/24 07:15:05;;;;;;;;;13.00;12.00;;;;;8.78;52.52;97128.75;6214069;28;97957;-67
2021/12/24 07:18:08;;;;;;;;;10.75;9.00;;;;;8.87;52.17;97136.09;6213750;28;96505;-68
2021/12/24 07:21:13;;;;;;;;;10.40;10.00;;;;;8.92;52.28;97114.66;6213513;28;96710;-67
2021/12/24 07:24:16;;;;;;;;;13.50;12.75;;;;;9.01;51.94;97117.69;6211895;28;98397;-67
2021/12/24 07:27:20;;;;;;;;;13.00;11.00;;;;;8.98;52.21;97108.28;6211665;28;97787;-68
2021/12/24 07:30:26;;;;;;;;;9.00;9.00;;;;;9.04;52.04;97101.06;6212349;28;98009;-68
2021/12/24 07:33:29;;;;;;;;;12.00;10.00;;;;;9.04;51.96;97109.91;6212297;28;96721;-66
2021/12/24 07:36:34;;;;;;;;;13.00;12.00;;;;;9.07;52.08;97100.56;6205426;28;97791;-68
2021/12/24 07:39:37;;;;;;;;;13.00;11.00;;;;;9.12;52.01;97096.03;6210826;28;96906;-67
2021/12/24 07:42:40;;;;;;;;;11.00;10.00;;;;;9.21;52.12;97109.00;6211530;28;98436;-67
2021/12/24 07:45:45;;;;;;;;;11.00;10.00;;;;;9.24;52.22;97103.91;6211621;28;99594;-67
2021/12/24 07:48:53;;;;;;;;;9.00;9.00;;;;;9.23;52.42;97102.31;6214084;28;96624;-68
2021/12/24 07:52:08;;;;;;;;;11.00;10.50;;;;;9.27;52.31;97108.78;6203185;28;96967;-67
2021/12/24 07:55:12;;;;;;;;;12.00;9.60;;;;;9.32;52.31;97106.16;6221216;28;96797;-69
2021/12/24 07:58:21;;;;;;;;;12.00;10.00;;;;;9.35;52.09;97100.25;6202691;28;96572;-68
2021/12/24 08:01:25;;;;;;;;;11.00;8.00;;;;;9.34;52.49;97095.94;6211540;28;96633;-67
2021/12/24 08:04:29;;;;;;;;;10.20;9.00;;;;;9.43;52.46;97096.28;6211422;28;97401;-68
2021/12/24 08:07:34;;;;;;;;;8.75;7.75;;;;;9.56;51.98;97104.72;6210413;28;97181;-67
2021/12/24 08:10:38;;;;;;;;;8.60;8.20;;;;;9.67;51.70;97119.06;6213134;28;96682;-66
2021/12/24 08:13:41;;;;;;;;;8.60;7.60;;;;;9.74;51.50;97094.59;6208081;28;96681;-68
2021/12/24 08:16:45;;;;;;;;;7.40;6.60;;;;;9.65;51.85;97096.97;6211902;27;97253;-67
2021/12/24 08:19:48;;;;;;;;;9.00;8.20;;;;;9.68;51.68;97085.69;6214085;27;97577;-68
2021/12/24 08:22:54;;;;;;;;;8.00;7.00;;;;;9.73;51.69;97076.81;6209442;28;96685;-67
2021/12/24 08:25:59;;;;;;;;;8.00;7.00;;;;;9.78;51.51;97085.75;6214961;28;97391;-67
2021/12/24 08:29:02;;;;;;;;;9.40;8.40;;;;;9.84;51.52;97086.59;6212270;28;96684;-67
2021/12/24 08:32:07;;;;;;;;;8.00;8.00;;;;;9.80;51.21;97072.84;6211648;28;97372;-66
2021/12/24 08:35:12;;;;;;;;;9.00;8.00;;;;;9.94;51.50;97095.53;6214030;28;97442;-66
2021/12/24 08:38:19;;;;;;;;;8.60;7.00;;;;;9.98;51.19;97095.81;6196957;28;97720;-66
2021/12/24 08:41:23;;;;;;;;;7.20;7.00;;;;;9.92;51.04;97076.13;6213184;28;98370;-66
2021/12/24 08:44:29;;;;;;;;;7.00;7.00;;;;;9.95;51.24;97082.88;6214744;28;97375;-67
2021/12/24 08:47:33;;;;;;;;;8.00;8.00;;;;;10.02;51.24;97076.19;6202151;28;96799;-66
2021/12/24 08:50:36;;;;;;;;;10.25;9.25;;;;;10.11;51.04;97087.28;6209382;28;97426;-66
2021/12/24 08:53:41;;;;;;;;;12.00;10.00;;;;;10.02;50.85;97064.59;6209578;28;97522;-66
2021/12/24 08:56:44;;;;;;;;;9.00;8.80;;;;;10.04;50.85;97070.53;6205952;28;97410;-66
2021/12/24 08:59:48;;;;;;;;;9.00;9.00;;;;;10.15;50.98;97083.00;6211927;28;96812;-66
2021/12/24 09:02:52;;;;;;;;;11.00;10.00;;;;;10.22;50.85;97080.88;6205582;28;96766;-67
2021/12/24 09:05:56;;;;;;;;;9.00;9.00;;;;;10.25;50.70;97071.47;6202594;28;98430;-67
2021/12/24 09:09:00;;;;;;;;;10.50;9.50;;;;;10.33;50.50;97061.00;6203217;28;97751;-66
2021/12/24 09:12:04;;;;;;;;;10.00;8.00;;;;;10.39;50.53;97059.94;6176269;28;97311;-66
2021/12/24 09:15:08;;;;;;;;;9.00;9.00;;;;;10.47;50.36;97050.53;6207846;28;97153;-67
2021/12/24 09:18:12;;;;;;;;;8.00;8.00;;;;;10.41;50.49;97056.97;6211882;28;96759;-67
2021/12/24 09:21:17;;;;;;;;;10.00;10.00;;;;;10.45;50.55;97057.28;6211142;28;97557;-65
2021/12/24 09:24:23;;;;;;;;;9.00;9.00;;;;;10.45;50.34;97058.09;6208194;28;98290;-67
2021/12/24 09:27:27;;;;;;;;;10.00;9.00;;;;;10.45;50.28;97051.88;6205478;28;97660;-69
2021/12/24 09:30:31;;;;;;;;;9.00;7.00;;;;;10.54;50.30;97050.28;6218056;27;97753;-65
2021/12/24 09:33:36;;;;;;;;;8.80;7.00;;;;;10.54;50.29;97039.50;6240040;27;98380;-66
2021/12/24 09:36:39;;;;;;;;;10.00;8.00;;;;;10.54;50.39;97034.94;6219069;28;100473;-66
2021/12/24 09:39:45;;;;;;;;;7.00;7.00;;;;;10.56;50.40;97035.47;6209826;28;97079;-65
2021/12/24 09:42:49;;;;;;;;;8.00;8.00;;;;;10.61;50.22;97024.69;6211435;28;96976;-65
2021/12/24 09:45:52;;;;;;;;;9.00;8.60;;;;;10.65;50.43;97030.38;6212009;28;97771;-66
2021/12/24 09:48:56;;;;;;;;;11.50;10.00;;;;;10.68;50.26;97019.88;6190787;28;97553;-65
2021/12/24 09:52:02;;;;;;;;;8.00;8.00;;;;;10.75;50.24;97017.69;6206574;28;97127;-67
2021/12/24 09:55:12;;;;;;;;;10.20;9.60;;;;;10.81;50.16;97008.56;6213956;28;97511;-65
2021/12/24 09:58:16;;;;;;;;;11.00;10.00;;;;;10.74;50.24;97013.41;6215772;28;96686;-66
2021/12/24 10:01:31;;;;;;;;;8.50;8.50;;;;;10.62;50.39;96983.19;6208579;28;97402;-66
2021/12/24 10:04:36;;;;;;;;;9.60;9.00;;;;;10.82;50.50;97010.19;6204567;28;99712;-66
2021/12/24 10:07:43;;;;;;;;;10.00;10.00;;;;;10.76;50.45;97000.47;6214850;28;96849;-66
2021/12/24 10:10:50;;;;;;;;;8.00;7.00;;;;;10.78;50.39;97009.09;6201788;28;96902;-66
2021/12/24 10:13:56;;;;;;;;;6.40;6.00;;;;;10.81;50.49;97008.56;6215574;28;97564;-65
2021/12/24 10:17:00;;;;;;;;;7.40;6.40;;;;;10.74;50.19;96993.72;6208625;28;98373;-65
2021/12/24 10:20:12;;;;;;;;;8.00;6.67;;;;;10.91;50.21;97012.31;6212256;28;98202;-65
2021/12/24 10:23:43;;;;;;;;;11.00;9.00;;;;;10.99;50.06;97018.00;6212029;28;96782;-66
2021/12/24 10:26:51;;;;;;;;;9.80;8.00;;;;;11.06;49.99;97001.53;6210677;28;97480;-66
2021/12/24 10:29:54;;;;;;;;;7.00;6.40;;;;;11.07;50.07;97005.88;6202852;28;97007;-65
2021/12/24 10:33:09;;;;;;;;;8.00;8.00;;;;;11.06;50.19;96991.56;6211145;28;97219;-66
2021/12/24 10:36:12;;;;;;;;;9.00;8.00;;;;;11.09;50.21;96982.94;6209600;28;97302;-66
2021/12/24 10:39:15;;;;;;;;;8.00;7.00;;;;;11.01;50.14;96979.97;6197383;28;98620;-65
2021/12/24 10:42:24;;;;;;;;;9.20;8.80;;;;;11.15;50.29;96975.66;6197874;28;97910;-66
2021/12/24 10:45:27;;;;;;;;;8.20;7.80;;;;;11.23;50.35;96965.13;6194373;28;99587;-65
2021/12/24 10:48:31;;;;;;;;;10.00;9.00;;;;;11.26;49.98;96953.78;6192838;28;97301;-66
2021/12/24 10:51:59;;;;;;;;;9.50;8.50;;;;;11.36;49.97;96963.75;6186393;28;98350;-66
2021/12/24 10:55:04;;;;;;;;;11.00;9.00;;;;;11.43;49.83;96961.59;6183663;28;97691;-67
2021/12/24 10:58:16;;;;;;;;;9.00;8.00;;;;;11.58;49.53;96960.75;6188222;28;97828;-66
2021/12/24 11:01:19;;;;;;;;;11.40;10.00;;;;;11.60;49.50;96940.47;6196000;28;97384;-65
2021/12/24 11:04:35;;;;;;;;;7.00;7.00;;;;;11.66;49.14;96947.47;6206719;28;96976;-66
2021/12/24 11:07:41;;;;;;;;;9.00;8.00;;;;;11.87;49.01;96953.66;6200985;28;97507;-67
2021/12/24 11:10:46;;;;;;;;;9.00;8.00;;;;;11.90;48.82;96944.16;6210851;28;97940;-65
2021/12/24 11:13:52;;;;;;;;;8.60;7.00;;;;;12.01;48.76;96951.16;6211379;28;97194;-67
2021/12/24 11:16:56;;;;;;;;;10.00;8.00;;;;;12.01;48.66;96959.25;6202855;28;98080;-66
2021/12/24 11:20:02;;;;;;;;;8.00;7.25;;;;;11.91;49.07;96962.81;6194772;28;96532;-65
2021/12/24 11:23:08;;;;;;;;;10.00;8.00;;;;;11.79;49.14;96970.41;6206003;28;97851;-65
2021/12/24 11:26:14;;;;;;;;;9.00;8.00;;;;;11.90;49.28;96961.19;6198985;28;98503;-65
2021/12/24 11:29:18;;;;;;;;;6.60;6.00;;;;;11.93;49.24;96943.59;6209591;28;97423;-66
2021/12/24 11:32:22;;;;;;;;;8.00;5.60;;;;;11.97;49.45;96936.59;6204786;28;97400;-65
2021/12/24 11:35:27;;;;;;;;;8.00;7.00;;;;;12.05;49.33;96914.38;6187841;28;96938;-67
2021/12/24 11:38:33;;;;;;;;;7.00;7.00;;;;;12.15;49.26;96917.84;6204524;28;96697;-68
2021/12/24 11:41:37;;;;;;;;;8.00;7.50;;;;;12.22;49.01;96914.81;6209307;28;96735;-65
2021/12/24 11:44:43;;;;;;;;;8.00;8.00;;;;;12.20;49.25;96916.19;6191505;28;96666;-66
2021/12/24 11:47:47;;;;;;;;;7.00;6.00;;;;;12.26;49.10;96910.50;6205655;28;96616;-66
2021/12/24 11:50:50;;;;;;;;;9.00;9.00;;;;;12.16;49.28;96915.94;6209664;28;97972;-67
2021/12/24 11:54:00;;;;;;;;;9.40;8.00;;;;;12.10;49.50;96920.56;6203901;28;96749;-65
2021/12/24 11:57:16;;;;;;;;;8.60;7.00;;;;;12.18;49.37;96921.88;6209253;28;98268;-64
2021/12/24 12:00:25;;;;;;;;;10.60;8.60;;;;;12.18;49.09;96915.66;6209494;28;97162;-64
2021/12/24 12:03:34;;;;;;;;;10.00;9.00;;;;;12.15;49.25;96925.94;6209167;28;98041;-66
2021/12/24 12:06:37;;;;;;;;;6.60;6.00;;;;;12.09;49.33;96918.94;6197141;28;96999;-64
2021/12/24 12:09:42;;;;;;;;;9.00;8.00;;;;;12.13;49.29;96917.31;6206234;28;97667;-66
2021/12/24 12:12:45;;;;;;;;;11.40;11.00;;;;;12.13;49.19;96911.91;6209403;28;98077;-64
2021/12/24 12:15:58;;;;;;;;;8.40;7.40;;;;;12.23;49.11;96907.53;6201267;28;97131;-66
2021/12/24 12:19:13;;;;;;;;;8.40;6.40;;;;;12.21;49.22;96909.72;6199536;28;96623;-65
2021/12/24 12:22:26;;;;;;;;;7.00;6.00;;;;;12.20;48.92;96910.78;6191108;28;97946;-64
2021/12/24 12:25:36;;;;;;;;;9.00;8.00;;;;;12.20;49.15;96899.97;6202840;28;97473;-67
2021/12/24 12:28:39;;;;;;;;;10.40;8.80;;;;;12.11;49.39;96907.88;6208066;28;97309;-65
2021/12/24 12:31:45;;;;;;;;;7.80;7.40;;;;;12.06;49.72;96897.91;6197859;28;97437;-65
2021/12/24 12:34:59;;;;;;;;;7.50;7.50;;;;;12.00;50.02;96892.81;6198783;28;96645;-64
2021/12/24 12:38:02;;;;;;;;;8.80;8.00;;;;;12.11;49.79;96883.56;6207013;28;96683;-64
2021/12/24 12:41:24;;;;;;;;;8.40;8.00;;;;;11.99;50.06;96891.19;6200306;28;96921;-66
2021/12/24 12:44:28;;;;;;;;;9.00;7.00;;;;;12.00;50.17;96893.63;6207555;28;97503;-65
2021/12/24 12:47:36;;;;;;;;;10.00;9.00;;;;;11.99;50.16;96896.59;6208527;28;97050;-63
2021/12/24 12:50:52;;;;;;;;;7.75;7.75;;;;;12.11;49.93;96888.97;6198503;28;96694;-64
2021/12/24 12:54:00;;;;;;;;;10.50;9.00;;;;;12.24;49.69;96898.34;6208709;28;97585;-65
2021/12/24 12:57:31;;;;;;;;;8.00;7.00;;;;;12.13;49.54;96895.69;6195816;28;98351;-64
2021/12/24 13:00:35;;;;;;;;;9.75;8.75;;;;;12.15;49.55;96909.75;6203401;28;97293;-66
2021/12/24 13:04:11;;;;;;;;;7.00;6.20;;;;;12.18;49.50;96912.94;6197453;28;97081;-67
2021/12/24 13:07:22;;;;;;;;;8.00;8.00;;;;;12.24;49.58;96909.94;6163460;28;98596;-66
2021/12/24 13:10:26;;;;;;;;;9.40;9.00;;;;;12.26;49.69;96915.91;6187743;28;97148;-65
2021/12/24 13:13:30;;;;;;;;;8.00;7.00;;;;;12.35;49.52;96914.19;6187100;28;96992;-66
2021/12/24 13:16:38;;;;;;;;;7.00;7.00;;;;;12.29;49.80;96926.13;6189818;28;97050;-65
2021/12/24 13:20:07;;;;;;;;;9.00;8.60;;;;;12.29;49.87;96933.41;6186687;28;97364;-67
2021/12/24 13:23:18;;;;;;;;;9.00;9.00;;;;;12.33;50.27;96929.06;6196179;28;98034;-67
2021/12/24 13:26:22;;;;;;;;;9.80;9.00;;;;;12.32;50.41;96938.25;6212328;28;98408;-66
2021/12/24 13:29:25;;;;;;;;;7.50;7.50;;;;;12.35;50.37;96935.81;6198023;28;97480;-63
2021/12/24 13:32:29;;;;;;;;;8.60;8.60;;;;;12.38;50.41;96929.84;6207540;28;99079;-65
2021/12/24 13:35:42;;;;;;;;;11.00;10.00;;;;;12.40;50.44;96921.47;6227424;27;98372;-67
2021/12/24 13:38:46;;;;;;;;;8.20;8.00;;;;;12.45;50.40;96932.25;6195147;28;97782;-68
2021/12/24 13:42:00;;;;;;;;;9.00;9.00;;;;;12.46;50.23;96941.97;6196172;28;97822;-67
2021/12/24 13:45:04;;;;;;;;;9.25;8.00;;;;;12.42;50.38;96947.09;6196689;28;97505;-68
2021/12/24 13:48:12;;;;;;;;;9.00;8.00;;;;;12.56;49.98;96947.28;6190871;28;98413;-65
2021/12/24 13:54:38;;;;;;;;;8.00;7.20;;;;;12.49;49.96;96965.72;6197505;28;97193;-65
2021/12/24 13:57:41;;;;;;;;;12.40;11.00;;;;;12.57;49.98;96978.63;6194915;28;97986;-65
2021/12/24 14:00:50;;;;;;;;;12.00;10.00;;;;;12.63;49.83;96972.09;6194863;28;97786;-65
2021/12/24 14:03:53;;;;;;;;;7.60;7.60;;;;;12.70;49.69;96975.31;6225439;27;97378;-68
2021/12/24 14:06:59;;;;;;;;;11.00;10.00;;;;;12.69;49.75;96978.28;6190531;28;97476;-67
2021/12/24 14:10:02;;;;;;;;;10.25;10.25;;;;;12.75;49.44;96963.66;6208439;28;97093;-66
2021/12/24 14:13:09;;;;;;;;;13.40;13.00;;;;;12.96;48.79;96960.47;6211235;28;96888;-65
2021/12/24 14:16:34;;;;;;;;;11.00;11.00;;;;;13.03;48.52;96982.63;6191518;28;97823;-66
2021/12/24 14:19:48;;;;;;;;;11.00;10.25;;;;;12.82;48.85;96969.53;6213438;28;96803;-64
2021/12/24 14:22:53;;;;;;;;;12.00;11.00;;;;;12.65;49.65;96963.72;6201565;28;97094;-67
2021/12/24 14:25:57;;;;;;;;;12.00;10.20;;;;;12.55;50.05;96970.00;6205175;28;97228;-65
2021/12/24 14:29:02;;;;;;;;;11.60;10.00;;;;;12.57;50.00;96962.41;6206047;28;98353;-65
2021/12/24 14:32:09;;;;;;;;;10.00;10.00;;;;;12.56;50.04;96963.50;6219608;28;97602;-66
2021/12/24 14:35:16;;;;;;;;;11.00;10.00;;;;;12.52;50.06;96978.66;6200916;28;97732;-67
2021/12/24 14:38:25;;;;;;;;;10.80;10.80;;;;;12.56;50.33;96974.31;6193485;28;97092;-65
2021/12/24 14:41:28;;;;;;;;;11.40;11.00;;;;;12.56;50.48;96980.53;6202138;28;97653;-68
2021/12/24 14:44:31;;;;;;;;;13.25;12.25;;;;;12.65;50.25;96983.47;6226274;27;97429;-67
2021/12/24 14:47:35;;;;;;;;;12.50;11.50;;;;;12.63;50.29;96974.00;6206251;28;97153;-68
2021/12/24 14:50:46;;;;;;;;;11.00;9.60;;;;;12.59;50.38;96979.97;6208376;28;97849;-67
2021/12/24 14:53:52;;;;;;;;;12.00;11.50;;;;;12.52;50.70;96986.78;6207615;28;97646;-65
2021/12/24 14:56:57;;;;;;;;;13.00;12.00;;;;;12.49;50.53;96966.53;6209267;28;97190;-68
2021/12/24 15:00:06;;;;;;;;;11.25;11.00;;;;;12.47;50.76;96970.59;6203012;28;97615;-65
2021/12/24 15:03:13;;;;;;;;;13.00;10.75;;;;;12.48;51.02;96974.91;6196460;28;96818;-67
2021/12/24 15:06:19;;;;;;;;;10.40;10.40;;;;;12.49;50.82;96974.63;6206397;28;98335;-68
2021/12/24 15:09:28;;;;;;;;;10.60;10.40;;;;;12.53;50.62;96970.28;6210809;28;96842;-67
2021/12/24 15:12:32;;;;;;;;;12.00;10.00;;;;;12.44;50.74;96973.84;6193368;28;97839;-68
2021/12/24 15:15:36;;;;;;;;;10.00;9.60;;;;;12.51;50.57;96977.84;6209651;28;97379;-66
2021/12/24 15:18:39;;;;;;;;;11.00;11.00;;;;;12.47;50.76;96984.09;6199737;28;98089;-68
2021/12/24 15:21:43;;;;;;;;;13.20;11.80;;;;;12.36;50.76;96983.38;6211465;28;97266;-68
2021/12/24 15:24:47;;;;;;;;;12.40;11.00;;;;;12.37;51.06;96978.75;6210415;28;97526;-66
2021/12/24 15:27:53;;;;;;;;;10.00;8.80;;;;;12.45;50.81;96979.00;6187158;28;96795;-68
2021/12/24 15:30:59;;;;;;;;;11.00;9.00;;;;;12.37;51.33;96973.34;6200794;28;97894;-66
2021/12/24 15:34:03;;;;;;;;;9.00;8.00;;;;;12.43;51.18;96975.75;6207732;28;96385;-68
2021/12/24 15:37:07;;;;;;;;;9.80;8.80;;;;;12.48;51.14;96975.72;6189749;28;96689;-68
2021/12/24 15:40:13;;;;;;;;;8.00;8.00;;;;;12.49;51.33;96966.53;6192260;28;96507;-66
2021/12/24 15:43:18;;;;;;;;;9.40;9.00;;;;;12.44;51.64;96973.84;6189388;28;98070;-66
2021/12/24 15:46:22;;;;;;;;;10.00;9.00;;;;;12.43;51.34;96956.03;6190073;28;97859;-66
2021/12/24 15:49:25;;;;;;;;;14.40;12.40;;;;;12.41;51.23;96960.91;6189205;28;97685;-67
2021/12/24 15:52:28;;;;;;;;;11.00;9.00;;;;;12.54;51.11;96969.19;6202878;28;97428;-67